CMA CGM Moliere — 9HA2072 — position and weather

sailwx.info

Track history (hours):
 
Tides and Currents Weather Stations Pressure Air Temp Water Temp Dewpoint Dewpoint Depression Visibility Wind Speed Wind Dir Waves Ship Positions

CMA CGM Moliere

Last reported at 2018-May-19 14:09 UTC. Time now 2018-May-20 14:00 UTC.
Position N 31°46' E 028°04'.

Length 300 m; draft 12.6 m.

Type: Ship (hazmat cat A). MMSI: 249917000.

Date/timePositionNaut miles runAvg speedWind from/ knotsBaromVisibWave heightAir tempDewpointWater temp
2018-May-19 14:09N 31°46' E 028°04'  
2018-May-17 00:18N 35°49' E 014°33'0 1.1
2018-May-16 23:59N 35°49' E 014°32'3 5.4
2018-May-16 23:30N 35°48' E 014°35'2 3.4
2018-May-16 23:00N 35°47' E 014°37'0 0.3
2018-May-16 22:30N 35°47' E 014°37'0 0.4
2018-May-16 22:00N 35°47' E 014°37'1 2.5
2018-May-16 21:30N 35°46' E 014°37'4 6.4
2018-May-16 20:56N 35°42' E 014°35'3 5.8
2018-May-16 20:30N 35°42' E 014°32'1011.7
2018-May-16 19:40N 35°46' E 014°21'211.3
2018-May-16 19:30N 35°46' E 014°19'611.3
2018-May-16 19:00N 35°51' E 014°14'612.5
2018-May-16 18:30N 35°54' E 014°08'813.0
2018-May-16 17:55N 35°58' E 013°59'513.3
2018-May-16 17:30N 36°00' E 013°54'813.6
2018-May-16 16:56N 36°05' E 013°45'613.9
2018-May-16 16:30N 36°08' E 013°39'713.9
2018-May-16 15:59N 36°12' E 013°32'613.5
2018-May-16 15:30N 36°15' E 013°25'1413.0
2018-May-16 14:26N 36°23' E 013°10'614.9
2018-May-16 14:00N 36°26' E 013°03'815.3
2018-May-16 13:30N 36°30' E 012°55'815.9
2018-May-16 13:00N 36°34' E 012°47'816.1
2018-May-16 12:30N 36°38' E 012°38'916.2
2018-May-16 11:56N 36°43' E 012°29'52215.8
2018-May-15 03:01N 36°56' E 001°37'216.4
2018-May-15 02:56N 36°56' E 001°35'716.6
2018-May-15 02:30N 36°54' E 001°27'816.9
2018-May-15 02:00N 36°53' E 001°17'1117.1
2018-May-15 01:21N 36°50' E 001°03'616.8
2018-May-15 01:00N 36°49' E 000°56'816.7
2018-May-15 00:30N 36°46' E 000°46'816.5
2018-May-15 00:00N 36°44' E 000°36'816.6
2018-May-14 23:30N 36°43' E 000°26'816.4
2018-May-14 23:00N 36°41' E 000°16'816.3
2018-May-14 22:30N 36°39' E 000°06'1816.2
2018-May-14 21:22N 36°35' W 000°16'616.3
2018-May-14 21:00N 36°34' W 000°24'816.2
2018-May-14 20:30N 36°32' W 000°34'816.3
2018-May-14 20:00N 36°31' W 000°44'1116.2
2018-May-14 19:18N 36°28' W 000°57'516.3
2018-May-14 19:00N 36°26' W 001°03'915.5
2018-May-14 18:27N 36°24' W 001°13'1115.8
2018-May-14 17:47N 36°22' W 001°26'18516.6
2018-May-14 06:37N 35°59' W 005°14'216.2
2018-May-14 06:30N 35°59' W 005°16'816.5
2018-May-14 06:00N 35°57' W 005°25'8 0.6
2018-May-13 17:05N 35°55' W 005°35'1 7.4
2018-May-13 17:00N 35°55' W 005°36'610.6
2018-May-13 16:28N 35°54' W 005°43'611.7
2018-May-13 15:59N 35°54' W 005°50'22211.9
2018-May-12 21:13N 37°45' W 009°50'2315.0
2018-May-12 19:41N 38°08' W 009°57'415.3
2018-May-12 19:26N 38°11' W 009°58'715.2
2018-May-12 18:59N 38°18' W 009°60'715.2
2018-May-12 18:30N 38°25' W 010°01'714.9
2018-May-12 18:01N 38°32' W 010°04'815.1
2018-May-12 17:30N 38°40' W 010°05'815.1
2018-May-12 17:00N 38°47' W 010°06'815.2
2018-May-12 16:30N 38°55' W 010°06'815.1
2018-May-12 16:01N 39°02' W 010°07'714.9
2018-May-12 15:31N 39°10' W 010°07'715.0
2018-May-12 15:01N 39°17' W 010°08'714.8
2018-May-12 14:31N 39°25' W 010°08'68514.3
2018-May-10 14:34N 49°48' W 003°28'111.9
2018-May-10 14:29N 49°48' W 003°26'612.0
2018-May-10 14:00N 49°51' W 003°18'612.0
2018-May-10 13:30N 49°54' W 003°10'612.3
2018-May-10 13:00N 49°57' W 003°02'612.7
2018-May-10 12:30N 49°60' W 002°53'613.2
2018-May-10 12:00N 50°02' W 002°43'713.5
2018-May-10 11:30N 50°04' W 002°33'6615.0
2018-May-10 07:06N 50°22' W 000°54'1214.9
2018-May-10 06:19N 50°25' W 000°36'514.9
2018-May-10 06:00N 50°26' W 000°29'714.7
2018-May-10 05:31N 50°28' W 000°18'714.2
2018-May-10 05:00N 50°30' W 000°07'714.2
2018-May-10 04:30N 50°32' E 000°04'714.2
2018-May-10 04:00N 50°33' E 000°15'714.2
2018-May-10 03:31N 50°34' E 000°26'714.2
2018-May-10 03:00N 50°36' E 000°37'714.1
2018-May-10 02:31N 50°39' E 000°46'714.5
2018-May-10 02:00N 50°44' E 000°55'714.7
2018-May-10 01:30N 50°48' E 001°05'714.8
2018-May-10 01:00N 50°52' E 001°14'814.8
2018-May-10 00:27N 50°58' E 001°23'714.7
2018-May-10 00:00N 51°03' E 001°30'714.7
2018-May-09 23:30N 51°09' E 001°38'611.2
2018-May-09 23:00N 51°12' E 001°45'714.2
2018-May-09 22:30N 51°19' E 001°49'714.3
2018-May-09 22:00N 51°25' E 001°53'714.2
2018-May-09 21:30N 51°31' E 001°60'714.4
2018-May-09 21:00N 51°36' E 002°09'714.3
2018-May-09 20:30N 51°41' E 002°17'714.3
2018-May-09 20:00N 51°46' E 002°25'713.8
2018-May-09 19:31N 51°51' E 002°33'713.1
2018-May-09 19:00N 51°56' E 002°39'713.4
2018-May-09 18:30N 52°02' E 002°45'713.7
2018-May-09 18:00N 52°06' E 002°54'714.1
2018-May-09 17:30N 52°12' E 003°01'714.3
2018-May-09 17:00N 52°17' E 003°08'714.8
2018-May-09 16:31N 52°24' E 003°14'814.9
2018-May-09 16:00N 52°30' E 003°22'815.0
2018-May-09 15:30N 52°36' E 003°29'714.8
2018-May-09 15:01N 52°41' E 003°37'714.6
2018-May-09 14:30N 52°47' E 003°44'  
Track history (hours):
 
Tides and Currents Weather Stations Pressure Air Temp Water Temp Dewpoint Dewpoint Depression Visibility Wind Speed Wind Dir Waves Ship Positions

CMA CGM Moliere

Last reported at 2018-May-19 14:09 UTC. Time now 2018-May-20 14:00 UTC.
Position N 31°46' E 028°04'.

Length 300 m; draft 12.6 m.

Type: Ship (hazmat cat A). MMSI: 249917000.

Date/timePositionNaut miles runAvg speedWind from/ knotsBaromVisibWave heightAir tempDewpointWater temp
2018-May-19 14:09N 31°46' E 028°04'  
2018-May-17 00:18N 35°49' E 014°33'0 1.1
2018-May-16 23:59N 35°49' E 014°32'3 5.4
2018-May-16 23:30N 35°48' E 014°35'2 3.4
2018-May-16 23:00N 35°47' E 014°37'0 0.3
2018-May-16 22:30N 35°47' E 014°37'0 0.4
2018-May-16 22:00N 35°47' E 014°37'1 2.5
2018-May-16 21:30N 35°46' E 014°37'4 6.4
2018-May-16 20:56N 35°42' E 014°35'3 5.8
2018-May-16 20:30N 35°42' E 014°32'1011.7
2018-May-16 19:40N 35°46' E 014°21'211.3
2018-May-16 19:30N 35°46' E 014°19'611.3
2018-May-16 19:00N 35°51' E 014°14'612.5
2018-May-16 18:30N 35°54' E 014°08'813.0
2018-May-16 17:55N 35°58' E 013°59'513.3
2018-May-16 17:30N 36°00' E 013°54'813.6
2018-May-16 16:56N 36°05' E 013°45'613.9
2018-May-16 16:30N 36°08' E 013°39'713.9
2018-May-16 15:59N 36°12' E 013°32'613.5
2018-May-16 15:30N 36°15' E 013°25'1413.0
2018-May-16 14:26N 36°23' E 013°10'614.9
2018-May-16 14:00N 36°26' E 013°03'815.3
2018-May-16 13:30N 36°30' E 012°55'815.9
2018-May-16 13:00N 36°34' E 012°47'816.1
2018-May-16 12:30N 36°38' E 012°38'916.2
2018-May-16 11:56N 36°43' E 012°29'52215.8
2018-May-15 03:01N 36°56' E 001°37'216.4
2018-May-15 02:56N 36°56' E 001°35'716.6
2018-May-15 02:30N 36°54' E 001°27'816.9
2018-May-15 02:00N 36°53' E 001°17'1117.1
2018-May-15 01:21N 36°50' E 001°03'616.8
2018-May-15 01:00N 36°49' E 000°56'816.7
2018-May-15 00:30N 36°46' E 000°46'816.5
2018-May-15 00:00N 36°44' E 000°36'816.6
2018-May-14 23:30N 36°43' E 000°26'816.4
2018-May-14 23:00N 36°41' E 000°16'816.3
2018-May-14 22:30N 36°39' E 000°06'1816.2
2018-May-14 21:22N 36°35' W 000°16'616.3
2018-May-14 21:00N 36°34' W 000°24'816.2
2018-May-14 20:30N 36°32' W 000°34'816.3
2018-May-14 20:00N 36°31' W 000°44'1116.2
2018-May-14 19:18N 36°28' W 000°57'516.3
2018-May-14 19:00N 36°26' W 001°03'915.5
2018-May-14 18:27N 36°24' W 001°13'1115.8
2018-May-14 17:47N 36°22' W 001°26'18516.6
2018-May-14 06:37N 35°59' W 005°14'216.2
2018-May-14 06:30N 35°59' W 005°16'816.5
2018-May-14 06:00N 35°57' W 005°25'8 0.6
2018-May-13 17:05N 35°55' W 005°35'1 7.4
2018-May-13 17:00N 35°55' W 005°36'610.6
2018-May-13 16:28N 35°54' W 005°43'611.7
2018-May-13 15:59N 35°54' W 005°50'22211.9
2018-May-12 21:13N 37°45' W 009°50'2315.0
2018-May-12 19:41N 38°08' W 009°57'415.3
2018-May-12 19:26N 38°11' W 009°58'715.2
2018-May-12 18:59N 38°18' W 009°60'715.2
2018-May-12 18:30N 38°25' W 010°01'714.9
2018-May-12 18:01N 38°32' W 010°04'815.1
2018-May-12 17:30N 38°40' W 010°05'815.1
2018-May-12 17:00N 38°47' W 010°06'815.2
2018-May-12 16:30N 38°55' W 010°06'815.1
2018-May-12 16:01N 39°02' W 010°07'714.9
2018-May-12 15:31N 39°10' W 010°07'715.0
2018-May-12 15:01N 39°17' W 010°08'714.8
2018-May-12 14:31N 39°25' W 010°08'68514.3
2018-May-10 14:34N 49°48' W 003°28'111.9
2018-May-10 14:29N 49°48' W 003°26'612.0
2018-May-10 14:00N 49°51' W 003°18'612.0
2018-May-10 13:30N 49°54' W 003°10'612.3
2018-May-10 13:00N 49°57' W 003°02'612.7
2018-May-10 12:30N 49°60' W 002°53'613.2
2018-May-10 12:00N 50°02' W 002°43'713.5
2018-May-10 11:30N 50°04' W 002°33'6615.0
2018-May-10 07:06N 50°22' W 000°54'1214.9
2018-May-10 06:19N 50°25' W 000°36'514.9
2018-May-10 06:00N 50°26' W 000°29'714.7
2018-May-10 05:31N 50°28' W 000°18'714.2
2018-May-10 05:00N 50°30' W 000°07'714.2
2018-May-10 04:30N 50°32' E 000°04'714.2
2018-May-10 04:00N 50°33' E 000°15'714.2
2018-May-10 03:31N 50°34' E 000°26'714.2
2018-May-10 03:00N 50°36' E 000°37'714.1
2018-May-10 02:31N 50°39' E 000°46'714.5
2018-May-10 02:00N 50°44' E 000°55'714.7
2018-May-10 01:30N 50°48' E 001°05'714.8
2018-May-10 01:00N 50°52' E 001°14'814.8
2018-May-10 00:27N 50°58' E 001°23'714.7
2018-May-10 00:00N 51°03' E 001°30'714.7
2018-May-09 23:30N 51°09' E 001°38'611.2
2018-May-09 23:00N 51°12' E 001°45'714.2
2018-May-09 22:30N 51°19' E 001°49'714.3
2018-May-09 22:00N 51°25' E 001°53'714.2
2018-May-09 21:30N 51°31' E 001°60'714.4
2018-May-09 21:00N 51°36' E 002°09'714.3
2018-May-09 20:30N 51°41' E 002°17'714.3
2018-May-09 20:00N 51°46' E 002°25'713.8
2018-May-09 19:31N 51°51' E 002°33'713.1
2018-May-09 19:00N 51°56' E 002°39'713.4
2018-May-09 18:30N 52°02' E 002°45'713.7
2018-May-09 18:00N 52°06' E 002°54'714.1
2018-May-09 17:30N 52°12' E 003°01'714.3
2018-May-09 17:00N 52°17' E 003°08'714.8
2018-May-09 16:31N 52°24' E 003°14'814.9
2018-May-09 16:00N 52°30' E 003°22'815.0
2018-May-09 15:30N 52°36' E 003°29'714.8
2018-May-09 15:01N 52°41' E 003°37'714.6
2018-May-09 14:30N 52°47' E 003°44'  

Dump ship's entire track history